createdAt,value
2018-03-31T00:01:46.277Z,11.80
2018-03-31T00:04:14.006Z,10.13
2018-03-31T00:06:41.763Z,10.60
2018-03-31T00:09:09.506Z,10.97
2018-03-31T00:11:37.245Z,11.33
2018-03-31T00:14:05.006Z,10.47
2018-03-31T00:16:32.815Z,10.87
2018-03-31T00:19:00.542Z,11.73
2018-03-31T00:21:28.308Z,11.20
2018-03-31T00:23:56.034Z,10.32
2018-03-31T00:26:23.798Z,12.93
2018-03-31T00:28:51.536Z,10.98
2018-03-31T00:31:19.282Z,11.15
2018-03-31T00:33:47.078Z,10.95
2018-03-31T00:36:14.814Z,12.05
2018-03-31T00:38:42.572Z,11.80
2018-03-31T00:41:10.314Z,12.13
2018-03-31T00:43:38.075Z,12.07
2018-03-31T00:46:05.829Z,12.43
2018-03-31T00:48:33.549Z,10.20
2018-03-31T00:51:01.344Z,12.00
2018-03-31T00:53:29.044Z,12.18
2018-03-31T00:55:56.802Z,11.10
2018-03-31T00:58:24.557Z,12.93
2018-03-31T01:00:52.325Z,12.32
2018-03-31T01:03:20.082Z,11.40
2018-03-31T01:05:48.573Z,10.98
2018-03-31T01:08:16.320Z,12.48
2018-03-31T01:10:44.814Z,10.65
2018-03-31T01:13:12.561Z,13.68
2018-03-31T01:15:41.049Z,11.73
2018-03-31T01:18:09.562Z,11.02
2018-03-31T01:20:37.421Z,12.40
2018-03-31T01:23:05.171Z,12.90
2018-03-31T01:25:32.951Z,12.02
2018-03-31T01:28:00.723Z,11.98
2018-03-31T01:30:28.466Z,11.55
2018-03-31T01:32:56.202Z,12.25
2018-03-31T01:35:23.961Z,12.50
2018-03-31T01:37:51.683Z,13.27
2018-03-31T01:40:19.419Z,10.88
2018-03-31T01:42:47.952Z,12.88
2018-03-31T01:45:15.749Z,11.23
2018-03-31T01:47:43.505Z,11.68
2018-03-31T01:50:11.231Z,10.00
2018-03-31T01:52:39.042Z,12.10
2018-03-31T01:55:06.774Z,10.57
2018-03-31T01:57:35.267Z,11.73
2018-03-31T02:00:03.038Z,12.32
2018-03-31T02:02:30.797Z,10.68
2018-03-31T02:04:58.542Z,11.93
2018-03-31T02:07:26.294Z,10.75
2018-03-31T02:09:54.038Z,12.02
2018-03-31T02:12:21.810Z,11.43
2018-03-31T02:14:49.561Z,11.93
2018-03-31T02:17:18.077Z,12.35
2018-03-31T02:19:45.829Z,11.43
2018-03-31T02:22:13.586Z,12.82
2018-03-31T02:24:41.322Z,12.60
2018-03-31T02:27:09.844Z,14.38
2018-03-31T02:29:37.573Z,12.90
2018-03-31T02:32:06.095Z,12.00
2018-03-31T02:34:33.823Z,11.57
2018-03-31T02:37:02.324Z,12.32
2018-03-31T02:39:30.073Z,12.35
2018-03-31T02:41:58.590Z,12.05
2018-03-31T02:44:26.341Z,12.13
2018-03-31T02:46:54.082Z,12.23
2018-03-31T02:49:22.573Z,12.07
2018-03-31T02:51:50.317Z,12.33
2018-03-31T02:54:18.866Z,13.32
2018-03-31T02:56:46.610Z,12.27
2018-03-31T02:59:14.385Z,13.03
2018-03-31T03:01:42.135Z,11.30
2018-03-31T03:04:09.867Z,11.10
2018-03-31T03:06:38.402Z,11.07
2018-03-31T03:09:06.129Z,12.10
2018-03-31T03:11:33.880Z,10.30
2018-03-31T03:14:01.635Z,12.43
2018-03-31T03:16:29.122Z,13.10
2018-03-31T03:18:56.640Z,11.60
2018-03-31T03:21:24.142Z,10.70
2018-03-31T03:23:52.439Z,12.93
2018-03-31T03:26:20.683Z,10.63
2018-03-31T03:28:48.182Z,11.48
2018-03-31T03:31:15.703Z,10.90
2018-03-31T03:33:43.194Z,11.70
2018-03-31T03:36:10.697Z,11.47
2018-03-31T03:38:38.226Z,11.25
2018-03-31T03:41:05.724Z,12.63
2018-03-31T03:43:33.242Z,11.52
2018-03-31T03:46:00.741Z,11.15
2018-03-31T03:48:28.254Z,11.33
2018-03-31T03:50:55.749Z,12.35
2018-03-31T03:53:23.271Z,11.07
2018-03-31T03:55:50.754Z,11.02
2018-03-31T03:58:18.266Z,11.52
2018-03-31T04:00:46.527Z,12.88
2018-03-31T04:03:14.030Z,11.93
2018-03-31T04:05:41.540Z,11.70
2018-03-31T04:08:09.031Z,11.23
2018-03-31T04:10:36.538Z,12.35
2018-03-31T04:13:04.022Z,12.67
2018-03-31T04:15:31.550Z,11.38
2018-03-31T04:17:59.829Z,14.50
2018-03-31T04:20:27.885Z,12.90
2018-03-31T04:22:55.393Z,11.30
2018-03-31T04:25:22.921Z,12.40
2018-03-31T04:27:50.422Z,12.73
2018-03-31T04:30:17.964Z,13.67
2018-03-31T04:32:45.471Z,12.50
2018-03-31T04:35:12.997Z,11.80
2018-03-31T04:37:41.258Z,12.70
2018-03-31T04:40:08.778Z,12.02
2018-03-31T04:42:36.262Z,12.37
2018-03-31T04:45:03.798Z,13.23
2018-03-31T04:47:31.293Z,13.32
2018-03-31T04:49:58.811Z,12.85
2018-03-31T04:52:26.355Z,12.40
2018-03-31T04:54:53.876Z,12.82
2018-03-31T04:57:21.407Z,12.17
2018-03-31T04:59:51.962Z,13.73
2018-03-31T05:02:19.455Z,12.82
2018-03-31T05:04:46.938Z,13.73
2018-03-31T05:07:14.445Z,15.02
2018-03-31T05:09:42.754Z,13.95
2018-03-31T05:12:10.278Z,15.55
2018-03-31T05:14:38.547Z,12.30
2018-03-31T05:17:06.059Z,14.52
2018-03-31T05:19:33.551Z,13.90
2018-03-31T05:22:01.902Z,15.48
2018-03-31T05:24:30.132Z,15.32
2018-03-31T05:26:58.421Z,13.43
2018-03-31T05:29:25.966Z,14.15
2018-03-31T05:31:54.242Z,13.95
2018-03-31T05:34:22.530Z,13.70
2018-03-31T05:36:50.802Z,15.68
2018-03-31T05:39:19.093Z,14.15
2018-03-31T05:41:46.622Z,13.73
2018-03-31T05:44:14.122Z,16.20
2018-03-31T05:46:41.634Z,13.75
2018-03-31T05:49:09.169Z,13.93
2018-03-31T05:51:36.683Z,14.10
2018-03-31T05:54:04.985Z,14.40
2018-03-31T05:56:32.523Z,13.13
2018-03-31T05:59:00.789Z,13.05
2018-03-31T06:01:29.082Z,14.00
2018-03-31T06:03:56.578Z,13.62
2018-03-31T06:06:24.099Z,13.15
2018-03-31T06:08:51.593Z,14.45
2018-03-31T06:11:19.115Z,13.97
2018-03-31T06:13:46.630Z,13.25
2018-03-31T06:16:14.155Z,13.73
2018-03-31T06:18:41.707Z,13.15
2018-03-31T06:21:09.222Z,12.90
2018-03-31T06:23:36.718Z,12.68
2018-03-31T06:26:04.241Z,14.03
2018-03-31T06:28:31.747Z,13.85
2018-03-31T06:30:59.282Z,13.40
2018-03-31T06:33:26.786Z,13.98
2018-03-31T06:35:54.297Z,14.20
2018-03-31T06:38:21.819Z,12.63
2018-03-31T06:40:49.301Z,12.60
2018-03-31T06:43:16.849Z,13.82
2018-03-31T06:45:44.354Z,13.70
2018-03-31T06:48:11.866Z,13.18
2018-03-31T06:50:39.456Z,13.90
2018-03-31T06:53:06.906Z,14.70
2018-03-31T06:55:35.215Z,13.57
2018-03-31T06:58:02.794Z,15.23
2018-03-31T07:00:30.741Z,14.77
2018-03-31T07:02:58.261Z,14.93
2018-03-31T07:05:26.516Z,13.48
2018-03-31T07:07:54.058Z,14.93
2018-03-31T07:10:21.578Z,14.73
2018-03-31T07:12:49.113Z,14.63
2018-03-31T07:15:17.514Z,15.20
2018-03-31T07:17:45.012Z,17.42
2018-03-31T07:20:12.523Z,15.95
2018-03-31T07:22:41.237Z,16.67
2018-03-31T07:25:08.721Z,15.63
2018-03-31T07:27:36.402Z,17.58
2018-03-31T07:30:03.926Z,16.27
2018-03-31T07:32:31.515Z,16.75
2018-03-31T07:34:59.043Z,14.80
2018-03-31T07:37:26.663Z,16.40
2018-03-31T07:39:55.032Z,16.17
2018-03-31T07:42:22.613Z,14.85
2018-03-31T07:44:51.050Z,15.60
2018-03-31T07:47:18.568Z,15.77
2018-03-31T07:49:46.178Z,16.65
2018-03-31T07:52:13.790Z,16.12
2018-03-31T07:54:41.307Z,16.93
2018-03-31T07:57:08.986Z,17.20
2018-03-31T07:59:37.320Z,15.90
2018-03-31T08:02:04.990Z,16.65
2018-03-31T08:04:32.526Z,17.85
2018-03-31T08:07:00.023Z,16.90
2018-03-31T08:09:27.698Z,17.10
2018-03-31T08:11:55.441Z,16.10
2018-03-31T08:14:22.991Z,16.75
2018-03-31T08:16:50.545Z,18.77
2018-03-31T08:19:18.617Z,19.85
2018-03-31T08:21:46.292Z,20.30
2018-03-31T08:24:14.826Z,17.05
2018-03-31T08:26:42.371Z,18.52
2018-03-31T08:29:10.658Z,18.20
2018-03-31T08:31:38.279Z,17.40
2018-03-31T08:34:05.906Z,19.30
2018-03-31T08:36:33.443Z,20.70
2018-03-31T08:39:01.113Z,21.37
2018-03-31T08:41:28.739Z,20.92
2018-03-31T08:43:57.039Z,19.75
2018-03-31T08:46:25.769Z,19.98
2018-03-31T08:48:53.295Z,18.85
2018-03-31T08:51:20.822Z,21.92
2018-03-31T08:53:48.350Z,21.35
2018-03-31T08:56:15.854Z,19.60
2018-03-31T08:58:44.150Z,20.20
2018-03-31T09:01:11.643Z,19.80
2018-03-31T09:03:39.129Z,20.50
2018-03-31T09:06:06.651Z,22.90
2018-03-31T09:08:34.184Z,21.40
2018-03-31T09:11:02.440Z,23.47
2018-03-31T09:13:34.255Z,22.33
2018-03-31T09:16:01.745Z,22.75
2018-03-31T09:18:29.238Z,23.55
2018-03-31T09:20:56.799Z,21.45
2018-03-31T09:23:24.250Z,24.70
2018-03-31T09:25:51.807Z,24.25
2018-03-31T09:28:19.349Z,23.75
2018-03-31T09:30:47.628Z,23.05
2018-03-31T09:33:15.889Z,24.27
2018-03-31T09:35:43.425Z,27.05
2018-03-31T09:40:44.879Z,24.33
2018-03-31T09:43:12.387Z,24.52
2018-03-31T09:45:39.900Z,23.97
2018-03-31T09:48:07.424Z,23.45
2018-03-31T09:50:34.922Z,27.15
2018-03-31T09:53:02.437Z,26.48
2018-03-31T09:55:30.729Z,24.15
2018-03-31T09:57:58.225Z,23.95
2018-03-31T10:00:31.575Z,25.98
2018-03-31T10:02:59.062Z,22.70
2018-03-31T10:05:26.558Z,25.55
2018-03-31T10:07:54.103Z,24.17
2018-03-31T10:10:21.626Z,24.30
2018-03-31T10:12:49.152Z,22.48
2018-03-31T10:15:17.431Z,23.65
2018-03-31T10:17:45.721Z,24.65
2018-03-31T10:20:14.013Z,23.10
2018-03-31T10:22:41.518Z,23.77
2018-03-31T10:25:09.030Z,22.02
2018-03-31T10:27:36.544Z,24.70
2018-03-31T10:30:04.078Z,24.35
2018-03-31T10:32:32.369Z,23.15
2018-03-31T10:34:59.864Z,23.08
2018-03-31T10:37:28.162Z,22.23
2018-03-31T10:39:55.684Z,22.45
2018-03-31T10:42:23.195Z,22.70
2018-03-31T10:44:50.706Z,23.77
2018-03-31T10:47:18.221Z,24.50
2018-03-31T10:49:45.738Z,22.02
2018-03-31T10:52:14.006Z,21.62
2018-03-31T10:54:41.522Z,23.40
2018-03-31T10:57:09.025Z,23.08
2018-03-31T10:59:37.392Z,22.05
2018-03-31T11:02:04.890Z,22.77
2018-03-31T11:04:32.426Z,22.90
2018-03-31T11:07:00.726Z,26.77
2018-03-31T11:09:28.246Z,22.93
2018-03-31T11:11:56.517Z,23.33
2018-03-31T11:14:24.046Z,23.92
2018-03-31T11:16:51.555Z,24.40
2018-03-31T11:19:19.885Z,23.92
2018-03-31T11:21:47.382Z,23.23
2018-03-31T11:24:15.667Z,22.73
2018-03-31T11:26:43.941Z,22.08
2018-03-31T11:29:12.214Z,24.00
2018-03-31T11:31:40.486Z,23.42
2018-03-31T11:34:08.743Z,22.15
2018-03-31T11:36:36.263Z,21.95
2018-03-31T11:39:03.751Z,21.70
2018-03-31T11:41:31.286Z,24.37
2018-03-31T11:43:58.782Z,23.75
2018-03-31T11:46:26.315Z,20.92
2018-03-31T11:48:53.858Z,24.23
2018-03-31T11:51:22.103Z,22.62
2018-03-31T11:53:50.373Z,23.38
2018-03-31T11:56:18.680Z,23.15
2018-03-31T11:58:46.183Z,22.48
2018-03-31T12:01:14.474Z,24.33
2018-03-31T12:03:42.028Z,19.87
2018-03-31T12:06:09.523Z,21.65
2018-03-31T12:08:37.026Z,21.12
2018-03-31T12:11:04.586Z,20.73
2018-03-31T12:13:32.087Z,22.47
2018-03-31T12:16:00.342Z,21.77
2018-03-31T12:18:27.868Z,22.50
2018-03-31T12:20:55.385Z,23.57
2018-03-31T12:23:23.650Z,21.70
2018-03-31T12:25:51.916Z,20.77
2018-03-31T12:28:19.439Z,20.52
2018-03-31T12:30:46.928Z,21.65
2018-03-31T12:33:14.443Z,20.65
2018-03-31T12:35:41.944Z,20.07
2018-03-31T12:38:09.450Z,21.65
2018-03-31T12:40:36.959Z,20.42
2018-03-31T12:43:04.477Z,18.45
2018-03-31T12:45:31.973Z,20.27
2018-03-31T12:47:59.491Z,20.52
2018-03-31T12:50:27.017Z,19.17
2018-03-31T12:52:55.274Z,19.92
2018-03-31T12:55:22.761Z,21.35
2018-03-31T12:57:51.039Z,21.45
2018-03-31T13:00:19.311Z,20.80
2018-03-31T13:02:47.606Z,20.80
2018-03-31T13:05:15.114Z,20.62
2018-03-31T13:07:42.618Z,20.67
2018-03-31T13:10:10.130Z,22.02
2018-03-31T13:12:37.627Z,20.23
2018-03-31T13:15:05.911Z,19.80
2018-03-31T13:17:33.397Z,19.70
2018-03-31T13:20:00.911Z,22.00
2018-03-31T13:22:29.187Z,19.15
2018-03-31T13:24:57.456Z,20.70
2018-03-31T13:27:25.030Z,20.98
2018-03-31T13:29:53.290Z,20.88
2018-03-31T13:32:20.812Z,21.23
2018-03-31T13:34:48.333Z,21.20
2018-03-31T13:37:16.590Z,20.23
2018-03-31T13:39:44.881Z,23.05
2018-03-31T13:42:13.161Z,21.65
2018-03-31T13:44:40.664Z,22.00
2018-03-31T13:47:08.174Z,22.10
2018-03-31T13:49:36.438Z,22.65
2018-03-31T13:52:03.951Z,20.52
2018-03-31T13:54:31.483Z,22.48
2018-03-31T13:56:58.992Z,20.98
2018-03-31T13:59:26.502Z,22.77
2018-03-31T14:01:54.002Z,21.17
2018-03-31T14:04:21.510Z,22.05
2018-03-31T14:06:49.051Z,22.05
2018-03-31T14:09:17.308Z,20.90
2018-03-31T14:11:44.813Z,24.08
2018-03-31T14:14:12.329Z,21.75
2018-03-31T14:16:39.819Z,21.50
2018-03-31T14:19:08.134Z,21.77
2018-03-31T14:21:35.605Z,20.90
2018-03-31T14:24:03.146Z,22.10
2018-03-31T14:29:05.282Z,21.20
2018-03-31T14:31:33.571Z,22.80
2018-03-31T14:34:01.878Z,22.40
2018-03-31T14:36:29.375Z,21.25
2018-03-31T14:38:56.904Z,21.10
2018-03-31T14:41:24.392Z,21.87
2018-03-31T14:43:51.882Z,24.63
2018-03-31T14:46:20.160Z,24.70
2018-03-31T14:48:48.409Z,21.83
2018-03-31T14:51:15.982Z,21.35
2018-03-31T14:53:44.238Z,23.17
2018-03-31T14:56:11.752Z,22.48
2018-03-31T14:58:39.277Z,24.67
2018-03-31T15:01:07.563Z,31.95
2018-03-31T15:03:35.849Z,24.55
2018-03-31T15:06:04.111Z,22.62
2018-03-31T15:08:32.362Z,24.55
2018-03-31T15:10:59.885Z,25.98
2018-03-31T15:13:27.374Z,24.17
2018-03-31T15:15:54.909Z,23.67
2018-03-31T15:18:22.379Z,26.63
2018-03-31T15:20:49.910Z,23.98
2018-03-31T15:23:17.397Z,24.65
2018-03-31T15:25:45.470Z,25.20
2018-03-31T15:28:13.725Z,25.75
2018-03-31T15:30:41.255Z,23.45
2018-03-31T15:33:09.544Z,24.75
2018-03-31T15:35:37.890Z,26.08
2018-03-31T15:38:06.230Z,24.17
2018-03-31T15:40:33.725Z,24.83
2018-03-31T15:43:01.246Z,25.25
2018-03-31T15:45:28.773Z,26.77
2018-03-31T15:47:57.055Z,27.45
2018-03-31T15:50:24.588Z,25.65
2018-03-31T15:52:52.089Z,27.15
2018-03-31T15:55:19.687Z,27.45
2018-03-31T15:57:47.170Z,27.77
2018-03-31T16:00:15.461Z,27.92
2018-03-31T16:02:43.720Z,29.87
2018-03-31T16:05:12.041Z,30.20
2018-03-31T16:07:39.530Z,32.17
2018-03-31T16:10:07.062Z,31.50
2018-03-31T16:12:34.545Z,32.72
2018-03-31T16:15:02.042Z,33.22
2018-03-31T16:17:30.329Z,32.77
2018-03-31T16:19:58.660Z,37.72
2018-03-31T16:22:26.134Z,32.37
2018-03-31T16:24:53.732Z,27.95
2018-03-31T16:27:21.248Z,28.50
2018-03-31T16:29:48.756Z,30.25
2018-03-31T16:32:16.277Z,30.60
2018-03-31T16:34:43.788Z,29.92
2018-03-31T16:37:12.114Z,31.65
2018-03-31T16:39:39.665Z,33.78
2018-03-31T16:42:07.238Z,35.30
2018-03-31T16:44:35.511Z,30.88
2018-03-31T16:47:03.026Z,31.67
2018-03-31T16:49:30.522Z,34.22
2018-03-31T16:51:58.037Z,30.87
2018-03-31T16:54:25.558Z,33.17
2018-03-31T16:56:53.054Z,33.28
2018-03-31T16:59:20.542Z,34.22
2018-03-31T17:01:48.068Z,34.67
2018-03-31T17:04:15.589Z,33.47
2018-03-31T17:06:43.865Z,32.40
2018-03-31T17:09:12.127Z,35.47
2018-03-31T17:11:39.642Z,34.05
2018-03-31T17:14:07.121Z,32.55
2018-03-31T17:16:34.632Z,33.95
2018-03-31T17:19:02.905Z,31.00
2018-03-31T17:21:31.186Z,28.65
2018-03-31T17:23:59.547Z,27.47
2018-03-31T17:26:27.830Z,29.33
2018-03-31T17:28:55.321Z,28.30
2018-03-31T17:31:22.835Z,29.98
2018-03-31T17:33:50.406Z,28.52
2018-03-31T17:36:18.680Z,24.48
2018-03-31T17:38:46.970Z,27.60
2018-03-31T17:41:14.494Z,25.62
2018-03-31T17:43:41.987Z,26.77
2018-03-31T17:46:10.270Z,25.23
2018-03-31T17:48:37.814Z,26.73
2018-03-31T17:51:06.076Z,29.45
2018-03-31T17:53:33.587Z,27.30
2018-03-31T17:56:01.143Z,25.40
2018-03-31T17:58:28.647Z,28.05
2018-03-31T18:00:56.276Z,26.87
2018-03-31T18:03:24.502Z,26.42
2018-03-31T18:05:52.790Z,26.25
2018-03-31T18:08:21.059Z,27.20
2018-03-31T18:10:49.315Z,26.50
2018-03-31T18:13:16.831Z,26.80
2018-03-31T18:15:44.333Z,26.03
2018-03-31T18:18:11.823Z,27.92
2018-03-31T18:20:39.346Z,27.92
2018-03-31T18:23:06.854Z,29.25
2018-03-31T18:25:34.338Z,29.40
2018-03-31T18:28:01.846Z,29.33
2018-03-31T18:30:30.114Z,28.75
2018-03-31T18:32:57.633Z,29.42
2018-03-31T18:35:25.118Z,31.97
2018-03-31T18:37:52.704Z,37.17
2018-03-31T18:40:20.988Z,38.60
2018-03-31T18:42:49.246Z,45.08
2018-03-31T18:45:16.771Z,44.88
2018-03-31T18:47:44.259Z,46.97
2018-03-31T18:50:11.820Z,47.65
2018-03-31T18:52:39.316Z,46.50
2018-03-31T18:55:06.841Z,47.97
2018-03-31T18:57:34.340Z,48.38
2018-03-31T19:00:01.835Z,49.25
2018-03-31T19:02:29.409Z,50.53
2018-03-31T19:04:56.969Z,47.00
2018-03-31T19:07:24.548Z,44.63
2018-03-31T19:09:52.800Z,42.62
2018-03-31T19:12:20.304Z,41.47
2018-03-31T19:14:47.831Z,40.90
2018-03-31T19:17:15.330Z,40.42
2018-03-31T19:19:42.853Z,40.22
2018-03-31T19:22:10.333Z,36.60
2018-03-31T19:24:43.510Z,36.15
2018-03-31T19:27:11.894Z,37.80
2018-03-31T19:29:40.144Z,37.00
2018-03-31T19:32:07.658Z,36.08
2018-03-31T19:34:35.184Z,33.92
2018-03-31T19:37:02.692Z,35.83
2018-03-31T19:39:35.967Z,34.25
2018-03-31T19:42:03.428Z,33.63
2018-03-31T19:44:30.929Z,32.28
2018-03-31T19:46:58.461Z,29.55
2018-03-31T19:49:25.980Z,31.33
2018-03-31T19:51:54.243Z,31.25
2018-03-31T19:54:22.506Z,31.15
2018-03-31T19:56:50.077Z,29.83
2018-03-31T19:59:18.349Z,29.23
2018-03-31T20:01:46.626Z,29.40
2018-03-31T20:04:14.906Z,27.87
2018-03-31T20:06:43.166Z,27.15
2018-03-31T20:09:10.678Z,28.00
2018-03-31T20:11:38.206Z,27.48
2018-03-31T20:14:06.495Z,29.55
2018-03-31T20:16:34.760Z,27.75
2018-03-31T20:19:02.270Z,27.02
2018-03-31T20:21:29.757Z,31.42
2018-03-31T20:23:57.276Z,27.27
2018-03-31T20:26:24.782Z,28.90
2018-03-31T20:28:52.304Z,29.73
2018-03-31T20:31:19.826Z,27.48
2018-03-31T20:33:47.343Z,33.13
2018-03-31T20:36:14.887Z,27.20
2018-03-31T20:38:42.373Z,30.30
2018-03-31T20:41:09.942Z,26.15
2018-03-31T20:43:38.203Z,25.05
2018-03-31T20:46:05.692Z,24.85
2018-03-31T20:48:33.983Z,23.33
2018-03-31T20:51:01.536Z,22.23
2018-03-31T20:53:29.067Z,21.25
2018-03-31T20:55:57.330Z,20.33
2018-03-31T20:58:24.914Z,19.90
2018-03-31T21:00:53.169Z,19.87
2018-03-31T21:03:20.694Z,19.12
2018-03-31T21:05:48.199Z,18.67
2018-03-31T21:08:15.734Z,18.70
2018-03-31T21:10:43.241Z,19.12
2018-03-31T21:13:10.762Z,17.85
2018-03-31T21:15:38.301Z,17.75
2018-03-31T21:18:05.806Z,17.80
2018-03-31T21:20:34.074Z,18.75
2018-03-31T21:23:01.596Z,17.55
2018-03-31T21:25:29.105Z,17.52
2018-03-31T21:27:57.395Z,17.23
2018-03-31T21:30:24.897Z,16.77
2018-03-31T21:32:52.455Z,18.77
2018-03-31T21:35:19.950Z,20.33
2018-03-31T21:37:48.224Z,15.95
2018-03-31T21:40:15.832Z,16.77
2018-03-31T21:42:44.113Z,15.93
2018-03-31T21:45:11.646Z,16.70
2018-03-31T21:47:39.126Z,13.67
2018-03-31T21:50:06.649Z,14.40
2018-03-31T21:52:34.902Z,15.27
2018-03-31T21:55:02.413Z,17.65
2018-03-31T21:57:29.930Z,17.63
2018-03-31T21:59:57.554Z,17.17
2018-03-31T22:02:25.049Z,18.55
2018-03-31T22:04:52.555Z,16.23
2018-03-31T22:07:20.067Z,16.83
2018-03-31T22:09:47.554Z,15.77
2018-03-31T22:12:15.053Z,16.12
2018-03-31T22:14:48.337Z,15.77
2018-03-31T22:17:15.823Z,16.05
2018-03-31T22:19:43.314Z,15.15
2018-03-31T22:22:11.606Z,15.27
2018-03-31T22:24:39.103Z,14.82
2018-03-31T22:27:06.590Z,14.10
2018-03-31T22:29:34.871Z,14.20
2018-03-31T22:32:03.135Z,13.77
2018-03-31T22:34:30.655Z,13.82
2018-03-31T22:36:58.162Z,15.27
2018-03-31T22:39:26.422Z,13.62
2018-03-31T22:41:53.958Z,15.80
2018-03-31T22:44:21.466Z,15.75
2018-03-31T22:46:49.716Z,18.70
2018-03-31T22:49:17.228Z,14.43
2018-03-31T22:51:44.749Z,15.17
2018-03-31T22:54:12.266Z,12.80
2018-03-31T22:56:39.878Z,11.52
2018-03-31T22:59:08.155Z,10.82
2018-03-31T23:01:36.416Z,11.48
2018-03-31T23:04:05.014Z,11.17
2018-03-31T23:06:32.754Z,10.63
2018-03-31T23:09:01.274Z,10.05
2018-03-31T23:11:29.029Z,9.95
2018-03-31T23:13:56.981Z,9.57
2018-03-31T23:16:24.721Z,9.23
2018-03-31T23:18:53.241Z,9.35
2018-03-31T23:21:20.979Z,9.10
2018-03-31T23:23:49.481Z,8.13
2018-03-31T23:26:17.246Z,8.43
2018-03-31T23:28:45.010Z,8.60
2018-03-31T23:31:12.737Z,8.60
2018-03-31T23:33:40.453Z,9.23
2018-03-31T23:36:08.197Z,8.57
2018-03-31T23:38:35.705Z,8.30
2018-03-31T23:41:03.202Z,7.60
2018-03-31T23:43:30.778Z,7.97
2018-03-31T23:45:58.286Z,7.68
2018-03-31T23:48:25.795Z,7.60
2018-03-31T23:50:53.274Z,7.45
2018-03-31T23:53:20.782Z,7.47
2018-03-31T23:55:48.281Z,6.78
2018-03-31T23:58:16.649Z,6.20
